Time;durP1;ratioP1;P1;durP2;ratioP2;P2;SDS_P1;SDS_P2;PMS_P1;PMS_P2;Temp;Humidity;BMP_temperature;BMP_pressure;BME280_temperature;BME280_humidity;BME280_pressure;Samples;Min_cycle;Max_cycle;Signal;HPM_P1;HPM_P2
2024/02/16 03:33:14;;;;;;;8.35;2.03;;;;;;;13.50;100.00;100356.03;6199854;22;20020;-87
2024/02/16 03:35:40;;;;;;;2.70;1.45;;;;;;;13.59;100.00;100347.53;6195283;23;20684;-87
2024/02/16 03:38:06;;;;;;;2.67;1.58;;;;;;;13.56;100.00;100345.59;6199290;23;20091;-88
2024/02/16 03:40:32;;;;;;;13.25;2.10;;;;;;;13.58;100.00;100346.78;6181340;23;20009;-87
2024/02/16 03:42:58;;;;;;;2.47;1.67;;;;;;;13.65;100.00;100334.41;6200277;23;20031;-87
2024/02/16 03:45:24;;;;;;;3.30;1.73;;;;;;;13.57;100.00;100331.69;6174462;23;20090;-88
2024/02/16 03:47:52;;;;;;;6.55;1.67;;;;;;;13.52;100.00;100342.91;6198402;23;20419;-87
2024/02/16 03:50:18;;;;;;;2.72;1.50;;;;;;;13.47;100.00;100334.38;6192929;23;20477;-87
2024/02/16 03:52:44;;;;;;;2.53;1.60;;;;;;;13.54;100.00;100331.69;6146882;23;20244;-88
2024/02/16 03:55:10;;;;;;;6.75;2.15;;;;;;;13.39;100.00;100335.50;6196789;23;20059;-87
2024/02/16 03:57:36;;;;;;;6.90;2.25;;;;;;;13.38;100.00;100339.34;6153011;23;20001;-88
2024/02/16 04:00:05;;;;;;;5.28;1.45;;;;;;;13.45;100.00;100331.28;6177337;23;20020;-87
2024/02/16 04:02:39;;;;;;;2.83;1.45;;;;;;;13.59;99.90;100325.88;6213176;23;20017;-88
2024/02/16 04:05:04;;;;;;;9.52;1.45;;;;;;;13.51;99.79;100329.75;6177659;23;20019;-88
2024/02/16 04:07:32;;;;;;;2.13;1.52;;;;;;;13.52;99.71;100329.38;6162750;23;20004;-87
2024/02/16 04:09:58;;;;;;;4.63;1.90;;;;;;;13.53;100.00;100332.81;6154096;23;20028;-87
2024/02/16 04:12:27;;;;;;;3.45;1.75;;;;;;;13.44;99.99;100335.13;6175691;23;20007;-87
2024/02/16 04:14:58;;;;;;;10.38;1.40;;;;;;;13.47;100.00;100340.53;6150317;23;20092;-87
2024/02/16 04:17:24;;;;;;;3.05;1.70;;;;;;;13.40;100.00;100340.53;6148081;23;20075;-87
2024/02/16 04:19:50;;;;;;;7.85;1.73;;;;;;;13.51;100.00;100332.47;6164250;23;20000;-87
2024/02/16 04:22:15;;;;;;;1.48;1.23;;;;;;;13.53;99.44;100332.81;6200735;23;20005;-88
2024/02/16 04:24:41;;;;;;;2.80;1.60;;;;;;;13.63;98.76;100328.63;6161892;23;20339;-87
2024/02/16 04:27:07;;;;;;;3.20;1.60;;;;;;;13.46;99.56;100332.81;6181861;23;20066;-87
2024/02/16 04:29:32;;;;;;;3.42;1.95;;;;;;;13.43;99.87;100331.63;6158060;23;20422;-88
2024/02/16 04:31:57;;;;;;;2.63;1.70;;;;;;;13.40;99.50;100320.81;6181913;23;20005;-87
2024/02/16 04:34:23;;;;;;;3.22;1.33;;;;;;;13.37;100.00;100327.00;6222751;23;20073;-87
2024/02/16 04:36:51;;;;;;;3.00;1.60;;;;;;;13.40;100.00;100315.41;6211489;23;20015;-88
2024/02/16 04:39:20;;;;;;;2.20;1.65;;;;;;;13.40;100.00;100326.22;6214980;23;20012;-88
2024/02/16 04:41:49;;;;;;;10.98;1.55;;;;;;;13.34;100.00;100331.22;6212769;23;20004;-87
2024/02/16 04:44:14;;;;;;;2.22;1.42;;;;;;;13.48;99.68;100320.47;6212016;23;20012;-87
2024/02/16 04:46:39;;;;;;;2.13;1.58;;;;;;;13.48;99.64;100325.09;6186422;23;20008;-87
2024/02/16 04:49:05;;;;;;;7.25;1.50;;;;;;;13.42;99.68;100315.78;6248291;23;20000;-87
2024/02/16 04:51:32;;;;;;;3.53;1.50;;;;;;;13.47;99.18;100318.91;6234881;23;20020;-87
2024/02/16 04:53:58;;;;;;;2.22;1.42;;;;;;;13.51;98.96;100319.69;6209971;23;20019;-87
2024/02/16 04:56:23;;;;;;;5.97;1.33;;;;;;;13.54;98.55;100320.84;6212767;23;20004;-87
2024/02/16 04:58:48;;;;;;;1.83;1.40;;;;;;;13.54;98.53;100326.28;6241020;23;20385;-87
2024/02/16 05:01:14;;;;;;;3.60;1.58;;;;;;;13.57;98.28;100322.78;6195724;23;20008;-86
2024/02/16 05:03:41;;;;;;;3.35;1.15;;;;;;;13.38;99.39;100323.13;6244516;23;20022;-87
2024/02/16 05:06:06;;;;;;;5.38;1.20;;;;;;;13.39;99.73;100322.72;6210571;23;20008;-87
2024/02/16 05:08:32;;;;;;;5.05;1.60;;;;;;;13.38;99.76;100315.78;6241278;23;20454;-87
2024/02/16 05:10:57;;;;;;;3.47;1.45;;;;;;;13.42;99.48;100303.06;6234128;23;20096;-87
2024/02/16 05:13:24;;;;;;;2.20;1.40;;;;;;;13.36;99.40;100309.19;6208034;23;20000;-87
2024/02/16 05:15:49;;;;;;;2.53;1.60;;;;;;;13.31;99.98;100309.59;6241803;23;20015;-87
2024/02/16 05:18:15;;;;;;;3.33;1.52;;;;;;;13.33;100.00;100318.09;6186991;23;20438;-87
2024/02/16 05:20:40;;;;;;;1.58;1.10;;;;;;;13.37;99.02;100311.53;6235564;23;20391;-87
2024/02/16 05:23:06;;;;;;;2.10;1.77;;;;;;;13.43;99.17;100306.53;6208161;23;20007;-87
2024/02/16 05:25:31;;;;;;;6.90;1.33;;;;;;;13.59;97.69;100306.94;6204501;23;20015;-87
2024/02/16 05:27:57;;;;;;;3.42;1.58;;;;;;;13.57;97.63;100304.63;6213829;23;20007;-86
2024/02/16 05:30:22;;;;;;;3.95;1.80;;;;;;;13.41;98.11;100303.44;6215717;23;20062;-87
2024/02/16 05:32:48;;;;;;;10.18;2.03;;;;;;;13.50;97.26;100299.22;6240022;23;20050;-87
2024/02/16 05:35:16;;;;;;;4.25;1.83;;;;;;;13.52;97.38;100298.81;6186758;23;20012;-87
2024/02/16 05:37:44;;;;;;;3.35;1.85;;;;;;;13.36;98.05;100293.75;6216972;23;20004;-87
2024/02/16 05:40:28;;;;;;;3.83;2.13;;;;;;;13.37;98.50;100294.53;6244010;23;20331;-87
2024/02/16 05:43:00;;;;;;;5.10;2.33;;;;;;;13.40;97.81;100299.94;6185795;23;20016;-87
2024/02/16 05:45:26;;;;;;;2.65;1.98;;;;;;;13.30;98.16;100297.19;6185259;23;20209;-87
2024/02/16 05:47:52;;;;;;;3.65;2.00;;;;;;;13.36;97.63;100295.69;6234523;23;20036;-87
2024/02/16 14:42:40;;;;;;;3.15;1.48;;;;;;;16.48;86.97;100376.69;6192161;22;20030;-87
2024/02/16 14:45:46;;;;;;;2.95;1.58;;;;;;;16.35;88.33;100391.94;6169196;23;20081;-83
2024/02/16 14:48:41;;;;;;;7.05;1.40;;;;;;;16.36;88.47;100385.31;6152026;23;20074;-86
2024/02/16 14:51:14;;;;;;;4.15;1.52;;;;;;;16.30;88.53;100381.50;6179511;23;20091;-86
2024/02/16 14:53:48;;;;;;;5.10;1.80;;;;;;;16.23;88.49;100380.38;6121007;23;20020;-85
2024/02/16 14:56:21;;;;;;;2.83;1.38;;;;;;;16.18;88.51;100385.47;6123125;23;20596;-84
2024/02/16 14:59:11;;;;;;;5.20;1.80;;;;;;;16.43;87.31;100385.28;6143002;23;20097;-84
2024/02/16 15:01:45;;;;;;;4.00;1.70;;;;;;;16.36;87.62;100394.25;6140196;23;20141;-86
2024/02/16 15:04:28;;;;;;;4.85;1.60;;;;;;;16.22;88.03;100397.84;6164099;23;20269;-83
2024/02/16 15:07:14;;;;;;;1.85;1.13;;;;;;;16.18;88.53;100404.47;6146115;23;20045;-85
2024/02/16 15:10:25;;;;;;;2.60;1.50;;;;;;;16.11;88.91;100412.66;6178441;23;20012;-85
2024/02/16 15:13:17;;;;;;;5.13;1.67;;;;;;;16.21;88.67;100422.69;6139437;23;20012;-86
2024/02/16 15:16:38;;;;;;;3.92;1.80;;;;;;;16.08;89.70;100416.19;6147739;23;20017;-86
2024/02/16 15:19:45;;;;;;;2.53;1.48;;;;;;;15.95;90.91;100412.38;6072428;23;20022;-85
2024/02/16 15:23:05;;;;;;;4.70;2.25;;;;;;;16.02;92.41;100420.50;6179824;23;20692;-85
2024/02/16 15:29:27;;;;;;;2.05;1.50;;;;;;;15.94;94.76;100424.41;6184910;23;20067;-82
2024/02/16 15:31:55;;;;;;;6.28;1.83;;;;;;;15.85;95.59;100432.97;6180415;23;20016;-82
2024/02/16 15:34:21;;;;;;;3.30;1.98;;;;;;;15.78;96.80;100437.66;6161083;23;20015;-82
2024/02/16 15:36:54;;;;;;;3.80;2.05;;;;;;;15.68;97.54;100435.78;6163733;23;20013;-83
2024/02/16 15:39:20;;;;;;;5.25;1.88;;;;;;;15.63;97.56;100447.81;6159614;23;20131;-84
2024/02/16 15:41:46;;;;;;;2.35;1.75;;;;;;;15.53;98.25;100437.00;6141253;23;20096;-85
2024/02/16 15:44:12;;;;;;;3.50;2.17;;;;;;;15.66;98.56;100452.47;6203979;23;20715;-83
2024/02/16 15:46:41;;;;;;;7.63;2.50;;;;;;;15.54;98.28;100450.19;6183647;23;20000;-84
2024/02/16 15:49:13;;;;;;;6.43;1.88;;;;;;;15.63;98.91;100447.03;6192583;23;20012;-82
2024/02/16 15:51:42;;;;;;;5.38;2.28;;;;;;;15.41;99.28;100450.97;6190550;23;20097;-82
2024/02/16 15:54:16;;;;;;;2.83;1.90;;;;;;;15.45;99.79;100449.81;6203763;23;20007;-82
2024/02/16 15:56:54;;;;;;;4.80;2.20;;;;;;;15.35;100.00;100469.56;6147849;23;20020;-83
2024/02/16 15:59:45;;;;;;;4.25;1.80;;;;;;;15.25;100.00;100476.56;6210768;23;20489;-82
2024/02/16 16:02:11;;;;;;;4.43;1.95;;;;;;;15.25;100.00;100481.25;6168348;23;20070;-81
2024/02/16 16:04:36;;;;;;;6.43;3.10;;;;;;;15.21;100.00;100483.19;6197860;23;20633;-83
2024/02/16 16:07:02;;;;;;;5.25;2.63;;;;;;;15.34;100.00;100484.31;6170576;23;20019;-83
2024/02/16 16:09:27;;;;;;;5.80;2.83;;;;;;;15.33;100.00;100482.75;6195118;23;20000;-83
2024/02/16 16:11:53;;;;;;;4.57;2.58;;;;;;;15.44;99.91;100489.00;6194978;23;20063;-83
2024/02/16 16:14:19;;;;;;;5.38;2.85;;;;;;;15.30;99.80;100495.19;6171409;23;20054;-83
2024/02/16 16:16:52;;;;;;;4.15;2.42;;;;;;;15.21;100.00;100504.91;6197189;23;20028;-83
2024/02/16 16:19:31;;;;;;;6.47;2.78;;;;;;;15.26;100.00;100502.56;6209553;23;20004;-83
2024/02/16 16:21:57;;;;;;;3.60;2.65;;;;;;;15.18;100.00;100509.16;6176469;23;20032;-84
2024/02/16 16:24:25;;;;;;;5.63;2.58;;;;;;;15.43;99.52;100525.44;6184130;23;20034;-83
2024/02/16 16:27:17;;;;;;;5.03;2.53;;;;;;;15.41;99.05;100516.88;6172561;23;20019;-86
2024/02/16 16:29:45;;;;;;;4.45;2.92;;;;;;;15.21;99.10;100534.75;6173627;23;20050;-84
2024/02/16 16:32:11;;;;;;;5.13;2.83;;;;;;;15.27;99.23;100539.38;6196082;23;20083;-85
2024/02/16 16:34:44;;;;;;;5.45;2.20;;;;;;;15.16;98.94;100554.09;6154215;23;20476;-85
2024/02/16 16:37:10;;;;;;;3.95;1.98;;;;;;;15.00;99.18;100557.19;6205675;23;20119;-85
2024/02/16 16:39:53;;;;;;;3.15;2.35;;;;;;;14.93;98.95;100561.84;6205740;23;20018;-83
2024/02/16 16:43:12;;;;;;;2.45;1.83;;;;;;;14.69;99.16;100574.19;6212314;23;20099;-85
2024/02/16 16:45:39;;;;;;;3.60;1.88;;;;;;;14.82;98.50;100577.31;6202508;23;20016;-83
2024/02/16 16:48:05;;;;;;;3.33;1.70;;;;;;;14.78;99.35;100573.84;6207354;23;20098;-85
2024/02/16 16:50:33;;;;;;;3.85;1.95;;;;;;;14.74;97.88;100592.03;6206006;23;20016;-85
2024/02/16 16:52:58;;;;;;;2.33;1.73;;;;;;;14.53;99.11;100597.38;6183615;23;20008;-87
2024/02/16 16:55:27;;;;;;;3.50;2.00;;;;;;;14.60;98.88;100598.19;6239179;23;20012;-87
2024/02/16 16:58:12;;;;;;;2.00;1.40;;;;;;;14.69;98.80;100611.38;6210819;23;20007;-87
2024/02/16 17:01:32;;;;;;;2.58;1.45;;;;;;;14.85;98.78;100622.63;6208948;23;20012;-87
2024/02/16 17:07:31;;;;;;;4.57;2.10;;;;;;;14.64;99.44;100638.84;6183573;23;20043;-87
2024/02/16 17:10:15;;;;;;;3.03;1.92;;;;;;;14.46;100.00;100642.28;6196000;23;20019;-84
2024/02/16 17:13:18;;;;;;;2.47;1.75;;;;;;;14.35;100.00;100644.16;6201307;23;20023;-83
2024/02/16 17:15:54;;;;;;;3.40;2.10;;;;;;;14.58;100.00;100643.88;6202800;23;20016;-85
2024/02/16 17:18:22;;;;;;;2.78;1.98;;;;;;;14.53;100.00;100654.31;6236272;23;20470;-87
2024/02/16 17:21:02;;;;;;;3.45;2.30;;;;;;;14.48;100.00;100660.84;6212945;23;20008;-87
2024/02/16 17:23:44;;;;;;;3.65;2.13;;;;;;;14.46;100.00;100669.38;6206545;23;20026;-87
2024/02/16 17:26:37;;;;;;;;;;;;;;;;;;;;;
2024/02/16 17:37:44;;;;;;;2.00;1.70;;;;;;;14.41;100.00;100696.84;6254990;23;20083;-88
2024/02/16 17:40:17;;;;;;;2.78;1.75;;;;;;;14.41;100.00;100709.59;6214353;23;20031;-88
2024/02/16 17:42:59;;;;;;;3.05;1.90;;;;;;;14.34;100.00;100710.31;6215204;23;20024;-88
2024/02/16 17:53:55;;;;;;;;;;;;;;;;;;;;;
2024/02/16 17:57:54;;;;;;;1.60;1.13;;;;;;;14.29;100.00;100735.09;6241125;23;20015;-90
2024/02/16 18:06:44;;;;;;;;;;;;;;;;;;;;;
2024/02/16 18:10:11;;;;;;;1.25;1.02;;;;;;;14.04;100.00;100757.69;6245897;23;20370;-90
2024/02/16 18:17:20;;;;;;;1.90;1.20;;;;;;;14.05;100.00;100778.22;6255103;23;20464;-90
2024/02/16 18:20:43;;;;;;;;;;;;;;;13.79;100.00;100776.44;6244389;23;20094;-91
2024/02/16 18:23:42;;;;;;;1.23;1.10;;;;;;;13.91;100.00;100781.59;6221207;23;19907;-89
2024/02/16 18:33:40;;;;;;;1.70;1.10;;;;;;;13.75;100.00;100804.63;6246735;23;20023;-89
2024/02/16 18:40:38;;;;;;;0.82;0.82;;;;;;;13.98;98.61;100805.22;5952398;24;20652;-91
2024/02/16 18:47:25;;;;;;;;;;;;;;;;;;;;;
2024/02/16 18:50:49;;;;;;;1.05;0.95;;;;;;;13.73;99.20;100828.56;5930579;23;20023;-89
2024/02/16 18:54:19;;;;;;;1.00;0.85;;;;;;;13.64;99.84;100833.50;5948643;23;20514;-88
2024/02/16 18:56:51;;;;;;;3.72;1.73;;;;;;;13.73;98.71;100840.19;5990917;23;20811;-88
2024/02/16 18:59:17;;;;;;;1.38;0.98;;;;;;;13.74;98.79;100843.69;6053353;23;20531;-87
2024/02/16 19:02:43;;;;;;;2.08;1.10;;;;;;;13.72;99.20;100854.88;6147783;23;20524;-90
2024/02/16 19:35:59;;;;;;;;;;;;;;;;;;;;;
2024/02/16 19:39:15;;;;;;;4.68;1.98;;;;;;;13.53;97.88;100892.91;6179762;23;20566;-85
2024/02/16 19:43:03;;;;;;;2.55;1.67;;;;;;;13.70;97.31;100899.69;6206061;23;20067;-86
2024/02/16 19:46:25;;;;;;;;;;;;;;;;;;;;;
2024/02/16 20:18:00;;;;;;;;;;;;;;;;;;;;;
2024/02/16 20:46:41;;;;;;;7.10;3.55;;;;;;;13.67;96.47;101001.34;6131741;23;20412;-87
2024/02/16 20:49:42;;;;;;;5.63;2.60;;;;;;;13.57;96.44;101002.75;6100042;23;20017;-87
2024/02/16 20:53:04;;;;;;;4.28;2.47;;;;;;;13.58;96.35;101012.47;6121468;23;20442;-87
2024/02/16 20:55:33;;;;;;;5.30;2.78;;;;;;;13.53;96.87;101017.38;6072593;23;20050;-85
2024/02/16 20:57:59;;;;;;;10.02;4.97;;;;;;;13.44;97.18;101019.56;6096638;23;20326;-87
2024/02/16 21:01:15;;;;;;;4.82;2.70;;;;;;;13.29;97.66;101024.00;6102421;23;20025;-86
2024/02/16 21:04:34;;;;;;;6.43;3.03;;;;;;;13.16;98.16;101027.28;6094169;23;20108;-86
2024/02/16 21:07:20;;;;;;;6.32;2.95;;;;;;;13.27;98.36;101020.88;6219484;23;20024;-86
2024/02/16 21:10:25;;;;;;;6.10;2.65;;;;;;;13.22;98.97;101028.53;6217253;23;20023;-86
2024/02/16 21:20:57;;;;;;;9.63;3.78;;;;;;;13.33;99.21;101040.28;6254289;23;20065;-87
2024/02/16 21:23:34;;;;;;;7.05;3.50;;;;;;;13.31;99.14;101042.56;6214608;23;20043;-87
2024/02/16 21:26:09;;;;;;;7.03;3.20;;;;;;;13.39;98.80;101038.84;6217413;23;20019;-86
2024/02/16 21:32:38;;;;;;;7.53;3.33;;;;;;;13.21;100.00;101054.00;6244012;23;20004;-87
2024/02/16 22:25:27;;;;;;;;;;;;;;;;;;;;;
2024/02/16 22:43:35;;;;;;;4.40;2.50;;;;;;;13.54;99.54;101106.34;6014654;23;20034;-88
2024/02/16 22:46:07;;;;;;;11.38;2.80;;;;;;;13.50;99.07;101115.53;6001620;23;20467;-87
2024/02/16 22:53:00;;;;;;;7.57;2.67;;;;;;;13.38;100.00;101127.31;6062174;23;20018;-87
2024/02/16 23:02:40;;;;;;;4.20;1.90;;;;;;;13.61;98.58;101135.41;6059819;23;20116;-89
2024/02/16 23:05:39;;;;;;;5.95;2.83;;;;;;;13.70;98.08;101129.75;6090457;23;20020;-87
2024/02/16 23:08:23;;;;;;;3.67;2.15;;;;;;;13.76;97.08;101139.94;6117037;23;20039;-84
2024/02/16 23:11:26;;;;;;;3.85;2.47;;;;;;;13.68;97.37;101132.84;6113603;23;20446;-88
2024/02/16 23:14:23;;;;;;;4.65;2.33;;;;;;;13.17;98.38;101139.72;6144666;23;20098;-88
2024/02/16 23:17:01;;;;;;;3.70;2.25;;;;;;;13.25;97.99;101146.81;6144093;23;20024;-88
2024/02/16 23:23:09;;;;;;;7.03;2.58;;;;;;;13.37;97.87;101154.75;6116157;23;20019;-89
2024/02/16 23:25:59;;;;;;;2.97;2.17;;;;;;;13.25;98.23;101153.00;6115627;23;20020;-87
2024/02/16 23:28:45;;;;;;;5.82;2.42;;;;;;;13.24;97.63;101146.03;6105788;23;20020;-87
2024/02/16 23:31:44;;;;;;;6.05;2.38;;;;;;;13.39;97.87;101147.81;6150692;23;20148;-88
2024/02/16 23:34:32;;;;;;;4.18;2.47;;;;;;;13.39;96.65;101147.06;6108533;23;20099;-85
2024/02/16 23:37:18;;;;;;;3.80;2.03;;;;;;;13.33;97.11;101162.03;6105206;23;20013;-85
2024/02/16 23:40:20;;;;;;;4.72;2.63;;;;;;;13.10;98.24;101161.22;6135341;23;20092;-84
2024/02/16 23:43:01;;;;;;;4.75;2.17;;;;;;;13.04;99.07;101171.56;6086086;23;20009;-84
2024/02/16 23:45:45;;;;;;;5.13;1.95;;;;;;;13.06;97.98;101165.78;6152383;23;20048;-83
2024/02/16 23:48:21;;;;;;;6.05;2.90;;;;;;;13.14;98.64;101168.25;6141567;23;20350;-84
2024/02/16 23:51:16;;;;;;;7.85;2.65;;;;;;;13.26;97.62;101176.19;6134402;23;20031;-83
2024/02/16 23:53:52;;;;;;;7.85;2.95;;;;;;;13.40;97.06;101183.78;6138154;23;20012;-83
2024/02/16 23:57:06;;;;;;;5.45;2.30;;;;;;;13.31;96.94;101183.25;6135835;23;20121;-84
